createdAt,value
2017-09-25T00:01:02.388Z,87.15
2017-09-25T00:03:31.481Z,87.52
2017-09-25T00:06:01.590Z,87.41
2017-09-25T00:08:30.673Z,87.44
2017-09-25T00:10:59.722Z,87.48
2017-09-25T00:13:28.792Z,87.33
2017-09-25T00:15:57.880Z,87.56
2017-09-25T00:18:26.973Z,87.54
2017-09-25T00:20:56.786Z,87.42
2017-09-25T00:23:25.857Z,87.32
2017-09-25T00:25:55.683Z,87.41
2017-09-25T00:28:24.748Z,87.47
2017-09-25T00:30:54.599Z,89.10
2017-09-25T00:33:23.954Z,89.92
2017-09-25T00:35:53.025Z,90.57
2017-09-25T00:38:22.092Z,90.86
2017-09-25T00:40:51.166Z,90.90
2017-09-25T00:43:20.498Z,90.85
2017-09-25T00:45:50.350Z,90.91
2017-09-25T00:48:19.433Z,90.89
2017-09-25T00:50:49.234Z,90.76
2017-09-25T00:56:13.500Z,90.55
2017-09-25T00:58:42.559Z,90.46
2017-09-25T01:01:14.413Z,90.46
2017-09-25T01:03:56.957Z,90.31
2017-09-25T01:06:27.471Z,90.09
2017-09-25T01:08:57.571Z,89.93
2017-09-25T01:11:26.652Z,89.54
2017-09-25T01:13:55.735Z,89.58
2017-09-25T01:16:24.806Z,89.55
2017-09-25T01:18:53.875Z,89.67
2017-09-25T01:21:23.696Z,89.62
2017-09-25T01:23:53.531Z,89.31
2017-09-25T01:26:22.608Z,89.29
2017-09-25T01:28:52.424Z,89.29
2017-09-25T01:31:21.504Z,89.27
2017-09-25T01:33:50.560Z,88.98
2017-09-25T01:36:19.630Z,89.07
2017-09-25T01:38:48.716Z,88.94
2017-09-25T01:41:17.812Z,88.89
2017-09-25T01:43:46.862Z,88.71
2017-09-25T01:46:15.927Z,88.62
2017-09-25T01:48:44.983Z,88.43
2017-09-25T01:51:14.059Z,88.48
2017-09-25T01:53:43.880Z,88.50
2017-09-25T01:56:13.717Z,88.51
2017-09-25T01:58:42.772Z,88.86
2017-09-25T02:01:12.609Z,89.04
2017-09-25T02:03:41.686Z,89.07
2017-09-25T02:06:10.719Z,89.37
2017-09-25T02:08:39.813Z,89.66
2017-09-25T02:11:08.908Z,89.79
2017-09-25T02:13:37.986Z,89.62
2017-09-25T02:16:07.056Z,89.29
2017-09-25T02:18:36.158Z,89.17
2017-09-25T02:21:05.232Z,88.83
2017-09-25T02:23:34.305Z,88.59
2017-09-25T02:26:03.367Z,89.17
2017-09-25T02:28:32.597Z,89.48
2017-09-25T02:31:01.656Z,89.61
2017-09-25T02:33:31.485Z,89.47
2017-09-25T02:36:00.580Z,89.96
2017-09-25T02:38:29.652Z,90.39
2017-09-25T02:40:59.494Z,90.60
2017-09-25T02:43:28.597Z,90.66
2017-09-25T02:45:57.703Z,90.58
2017-09-25T02:48:26.768Z,90.32
2017-09-25T02:50:55.858Z,90.09
2017-09-25T02:53:24.920Z,90.13
2017-09-25T02:55:54.031Z,90.02
2017-09-25T02:58:23.086Z,90.02
2017-09-25T03:00:52.161Z,89.96
2017-09-25T03:03:21.245Z,89.52
2017-09-25T03:05:50.324Z,89.38
2017-09-25T03:08:20.157Z,89.34
2017-09-25T03:10:49.216Z,89.28
2017-09-25T03:13:19.051Z,89.26
2017-09-25T03:15:48.114Z,89.30
2017-09-25T03:18:17.206Z,89.17
2017-09-25T03:20:46.582Z,89.24
2017-09-25T03:23:15.638Z,89.39
2017-09-25T03:25:44.936Z,89.57
2017-09-25T03:28:13.996Z,89.46
2017-09-25T03:30:43.108Z,89.52
2017-09-25T03:33:12.160Z,89.25
2017-09-25T03:35:41.221Z,88.92
2017-09-25T03:38:10.320Z,89.00
2017-09-25T03:40:39.371Z,89.36
2017-09-25T03:43:08.451Z,89.74
2017-09-25T03:45:37.520Z,90.22
2017-09-25T03:48:06.616Z,90.54
2017-09-25T03:50:35.896Z,90.83
2017-09-25T03:53:05.744Z,90.90
2017-09-25T03:55:35.124Z,90.88
2017-09-25T03:58:04.180Z,90.78
2017-09-25T04:00:33.341Z,90.54
2017-09-25T04:03:02.435Z,90.49
2017-09-25T04:05:31.508Z,90.35
2017-09-25T04:08:00.584Z,90.19
2017-09-25T04:10:29.665Z,89.94
2017-09-25T04:12:59.503Z,90.24
2017-09-25T04:15:28.570Z,90.42
2017-09-25T04:17:58.424Z,90.55
2017-09-25T04:20:27.470Z,90.61
2017-09-25T04:22:56.536Z,90.63
2017-09-25T04:25:25.614Z,90.77
2017-09-25T04:27:54.686Z,90.63
2017-09-25T04:30:23.760Z,90.74
2017-09-25T04:32:53.579Z,90.56
2017-09-25T04:35:23.445Z,90.30
2017-09-25T04:37:52.525Z,89.69
2017-09-25T04:40:21.645Z,89.47
2017-09-25T04:42:51.478Z,89.51
2017-09-25T04:45:20.564Z,89.12
2017-09-25T04:47:49.652Z,89.07
2017-09-25T04:50:19.572Z,89.47
2017-09-25T04:52:48.659Z,90.03
2017-09-25T04:55:17.728Z,90.49
2017-09-25T04:57:46.790Z,90.53
2017-09-25T05:00:16.641Z,90.93
2017-09-25T05:02:45.717Z,91.10
2017-09-25T05:05:14.972Z,91.28
2017-09-25T05:07:44.046Z,91.32
2017-09-25T05:10:13.132Z,91.37
2017-09-25T05:12:42.191Z,91.56
2017-09-25T05:15:12.049Z,91.87
2017-09-25T05:17:41.961Z,92.26
2017-09-25T05:20:11.114Z,92.45
2017-09-25T05:22:41.182Z,92.74
2017-09-25T05:25:10.254Z,93.10
2017-09-25T05:27:39.292Z,93.71
2017-09-25T05:30:08.376Z,93.63
2017-09-25T05:32:37.467Z,93.84
2017-09-25T05:35:06.559Z,94.12
2017-09-25T05:37:35.898Z,94.50
2017-09-25T05:40:04.987Z,94.75
2017-09-25T05:42:34.045Z,95.10
2017-09-25T05:45:03.111Z,94.70
2017-09-25T05:47:32.547Z,94.29
2017-09-25T05:50:01.629Z,93.44
2017-09-25T05:52:30.682Z,92.88
2017-09-25T05:55:00.516Z,92.11
2017-09-25T05:57:29.584Z,92.01
2017-09-25T05:59:58.676Z,92.23
2017-09-25T06:02:27.805Z,91.90
2017-09-25T06:04:57.645Z,91.73
2017-09-25T06:07:26.801Z,91.84
2017-09-25T06:09:56.645Z,92.07
2017-09-25T06:12:26.102Z,92.06
2017-09-25T06:14:55.303Z,92.25
2017-09-25T06:17:25.149Z,92.52
2017-09-25T06:19:54.231Z,92.42
2017-09-25T06:22:23.310Z,92.37
2017-09-25T06:24:52.375Z,92.84
2017-09-25T06:27:21.466Z,93.07
2017-09-25T06:29:50.513Z,93.05
2017-09-25T06:32:19.607Z,93.30
2017-09-25T06:34:49.448Z,92.97
2017-09-25T06:37:18.542Z,92.72
2017-09-25T06:39:47.604Z,92.27
2017-09-25T06:42:17.443Z,90.80
2017-09-25T06:44:46.504Z,90.48
2017-09-25T06:47:16.345Z,90.32
2017-09-25T06:49:45.682Z,90.09
2017-09-25T06:52:14.738Z,90.47
2017-09-25T06:54:43.853Z,90.42
2017-09-25T06:57:12.911Z,89.77
2017-09-25T06:59:41.983Z,89.35
2017-09-25T07:02:11.059Z,89.04
2017-09-25T07:04:40.133Z,88.67
2017-09-25T07:07:09.196Z,89.11
2017-09-25T07:09:39.049Z,89.03
2017-09-25T07:12:08.125Z,88.91
2017-09-25T07:14:37.181Z,88.78
2017-09-25T07:17:06.250Z,88.74
2017-09-25T07:19:35.336Z,88.76
2017-09-25T07:22:04.480Z,88.41
2017-09-25T07:24:35.003Z,87.91
2017-09-25T07:27:06.978Z,87.10
2017-09-25T07:29:36.041Z,86.86
2017-09-25T07:32:05.151Z,87.22
2017-09-25T07:34:40.042Z,86.99
2017-09-25T07:37:09.177Z,86.13
2017-09-25T07:39:38.253Z,86.18
2017-09-25T07:42:07.336Z,84.85
2017-09-25T07:44:36.408Z,85.24
2017-09-25T07:47:05.471Z,85.08
2017-09-25T07:49:37.272Z,85.17
2017-09-25T07:52:07.380Z,85.22
2017-09-25T07:54:36.455Z,84.13
2017-09-25T07:57:06.279Z,83.19
2017-09-25T07:59:35.361Z,83.39
2017-09-25T08:02:05.192Z,83.07
2017-09-25T08:04:34.366Z,83.02
2017-09-25T08:07:05.745Z,83.20
2017-09-25T08:09:35.881Z,83.30
2017-09-25T08:12:04.943Z,82.99
2017-09-25T08:14:34.021Z,82.61
2017-09-25T08:17:03.858Z,82.37
2017-09-25T08:19:32.968Z,81.36
2017-09-25T08:22:02.012Z,81.56
2017-09-25T08:24:31.109Z,81.43
2017-09-25T08:27:00.148Z,81.01
2017-09-25T08:29:29.231Z,82.12
2017-09-25T08:31:58.310Z,81.62
2017-09-25T08:34:28.223Z,80.17
2017-09-25T08:36:57.308Z,80.95
2017-09-25T08:39:26.381Z,80.72
2017-09-25T08:41:55.468Z,79.09
2017-09-25T08:44:24.532Z,78.83
2017-09-25T08:46:53.605Z,79.19
2017-09-25T08:49:23.436Z,77.39
2017-09-25T08:51:52.508Z,78.11
2017-09-25T08:54:22.693Z,78.38
2017-09-25T08:56:51.740Z,78.02
2017-09-25T08:59:20.825Z,78.64
2017-09-25T09:01:49.922Z,78.75
2017-09-25T09:04:19.763Z,78.64
2017-09-25T09:06:48.849Z,78.65
2017-09-25T09:09:17.910Z,78.49
2017-09-25T09:11:46.988Z,78.47
2017-09-25T09:14:16.059Z,78.86
2017-09-25T09:16:45.121Z,78.35
2017-09-25T09:19:14.197Z,79.38
2017-09-25T09:21:43.395Z,79.37
2017-09-25T09:24:12.495Z,78.98
2017-09-25T09:26:41.566Z,78.63
2017-09-25T09:29:10.905Z,77.81
2017-09-25T09:31:41.074Z,78.11
2017-09-25T09:34:10.165Z,76.30
2017-09-25T09:36:39.215Z,76.75
2017-09-25T09:39:08.338Z,76.05
2017-09-25T09:41:37.381Z,76.34
2017-09-25T09:44:06.457Z,76.67
2017-09-25T09:46:35.514Z,76.01
2017-09-25T09:49:04.592Z,75.28
2017-09-25T09:51:34.416Z,76.37
2017-09-25T09:54:03.477Z,76.15
2017-09-25T09:56:32.591Z,75.87
2017-09-25T09:59:02.448Z,75.49
2017-09-25T10:01:31.497Z,74.25
2017-09-25T10:04:01.340Z,74.66
2017-09-25T10:06:30.534Z,73.86
2017-09-25T10:09:00.449Z,74.23
2017-09-25T10:11:30.264Z,74.27
2017-09-25T10:13:59.340Z,73.89
2017-09-25T10:16:28.429Z,73.03
2017-09-25T10:18:58.264Z,72.51
2017-09-25T10:21:28.077Z,72.71
2017-09-25T10:23:57.154Z,72.56
2017-09-25T10:26:27.015Z,71.95
2017-09-25T10:28:56.325Z,70.82
2017-09-25T10:31:25.391Z,69.57
2017-09-25T10:33:54.480Z,70.55
2017-09-25T10:36:23.585Z,69.37
2017-09-25T10:38:52.663Z,69.50
2017-09-25T10:41:21.856Z,70.71
2017-09-25T10:43:50.945Z,71.45
2017-09-25T10:46:20.762Z,71.34
2017-09-25T10:48:50.596Z,71.09
2017-09-25T10:51:19.665Z,71.55
2017-09-25T10:53:49.501Z,72.63
2017-09-25T10:56:18.579Z,73.34
2017-09-25T10:58:47.937Z,73.77
2017-09-25T11:01:17.003Z,72.20
2017-09-25T11:03:46.068Z,71.62
2017-09-25T11:06:15.901Z,72.16
2017-09-25T11:08:44.980Z,72.06
2017-09-25T11:11:14.056Z,72.31
2017-09-25T11:13:43.109Z,72.46
2017-09-25T11:16:12.194Z,72.11
2017-09-25T11:18:41.286Z,72.60
2017-09-25T11:21:10.323Z,72.37
2017-09-25T11:23:39.395Z,72.44
2017-09-25T11:26:08.471Z,72.70
2017-09-25T11:28:37.551Z,71.95
2017-09-25T11:31:06.640Z,72.67
2017-09-25T11:33:36.452Z,69.89
2017-09-25T11:36:05.576Z,68.16
2017-09-25T11:38:34.627Z,70.19
2017-09-25T11:41:04.586Z,69.96
2017-09-25T11:43:33.647Z,71.32
2017-09-25T11:46:03.496Z,71.08
2017-09-25T11:48:32.556Z,70.77
2017-09-25T11:51:02.719Z,71.04
2017-09-25T11:53:33.345Z,71.47
2017-09-25T11:56:02.398Z,71.45
2017-09-25T11:58:32.259Z,71.76
2017-09-25T12:01:02.379Z,72.06
2017-09-25T12:03:31.457Z,71.90
2017-09-25T12:06:00.524Z,72.65
2017-09-25T12:08:30.365Z,73.08
2017-09-25T12:10:59.447Z,73.36
2017-09-25T12:13:28.489Z,73.46
2017-09-25T12:15:57.560Z,72.98
2017-09-25T12:18:26.619Z,73.20
2017-09-25T12:20:56.485Z,72.55
2017-09-25T12:23:25.579Z,73.14
2017-09-25T12:25:54.644Z,72.70
2017-09-25T12:28:23.727Z,72.51
2017-09-25T12:30:52.783Z,72.71
2017-09-25T12:33:22.579Z,72.23
2017-09-25T12:35:52.595Z,72.89
2017-09-25T12:38:21.691Z,72.07
2017-09-25T12:40:50.827Z,70.40
2017-09-25T12:43:20.657Z,71.20
2017-09-25T12:45:50.626Z,70.65
2017-09-25T12:48:19.678Z,70.81
2017-09-25T12:50:48.760Z,71.30
2017-09-25T12:53:18.596Z,72.21
2017-09-25T12:55:47.936Z,72.56
2017-09-25T12:58:16.991Z,72.20
2017-09-25T13:00:46.827Z,71.99
2017-09-25T13:03:15.924Z,70.94
2017-09-25T13:05:45.012Z,71.66
2017-09-25T13:08:14.075Z,70.68
2017-09-25T13:10:43.184Z,71.15
2017-09-25T13:13:12.239Z,71.44
2017-09-25T13:15:42.118Z,71.55
2017-09-25T13:18:11.227Z,71.09
2017-09-25T13:20:40.332Z,70.12
2017-09-25T13:23:09.399Z,70.57
2017-09-25T13:25:38.456Z,69.49
2017-09-25T13:28:07.543Z,69.15
2017-09-25T13:30:37.723Z,70.67
2017-09-25T13:33:06.789Z,71.15
2017-09-25T13:35:39.059Z,71.91
2017-09-25T13:38:08.116Z,70.84
2017-09-25T13:40:37.963Z,70.91
2017-09-25T13:43:07.028Z,70.75
2017-09-25T13:45:36.099Z,71.27
2017-09-25T13:48:05.167Z,70.70
2017-09-25T13:50:34.237Z,70.31
2017-09-25T13:53:03.448Z,70.26
2017-09-25T13:55:32.494Z,69.44
2017-09-25T13:58:01.569Z,69.75
2017-09-25T14:03:04.935Z,69.94
2017-09-25T14:05:33.994Z,69.46
2017-09-25T14:08:03.057Z,69.92
2017-09-25T14:10:32.130Z,70.68
2017-09-25T14:13:01.194Z,69.76
2017-09-25T14:15:30.333Z,70.01
2017-09-25T14:17:59.400Z,70.23
2017-09-25T14:20:29.225Z,69.60
2017-09-25T14:22:58.331Z,70.66
2017-09-25T14:25:28.232Z,70.17
2017-09-25T14:27:57.304Z,69.50
2017-09-25T14:30:27.151Z,69.12
2017-09-25T14:32:56.258Z,69.86
2017-09-25T14:35:25.298Z,70.44
2017-09-25T14:37:54.516Z,70.72
2017-09-25T14:40:24.488Z,70.80
2017-09-25T14:42:53.561Z,71.47
2017-09-25T14:45:22.612Z,71.22
2017-09-25T14:47:51.745Z,71.28
2017-09-25T14:50:20.788Z,71.30
2017-09-25T14:52:49.945Z,70.48
2017-09-25T14:55:19.023Z,70.91
2017-09-25T14:57:48.102Z,70.72
2017-09-25T15:00:17.921Z,70.78
2017-09-25T15:02:47.003Z,70.17
2017-09-25T15:05:16.862Z,70.42
2017-09-25T15:07:45.934Z,70.11
2017-09-25T15:10:15.040Z,70.09
2017-09-25T15:12:44.107Z,71.00
2017-09-25T15:15:14.156Z,70.64
2017-09-25T15:17:43.212Z,69.62
2017-09-25T15:20:13.062Z,70.60
2017-09-25T15:22:42.238Z,70.16
2017-09-25T15:25:12.066Z,70.55
2017-09-25T15:27:41.150Z,70.69
2017-09-25T15:30:10.198Z,71.61
2017-09-25T15:32:39.276Z,71.37
2017-09-25T15:35:08.356Z,71.44
2017-09-25T15:37:37.424Z,71.27
2017-09-25T15:40:07.347Z,71.63
2017-09-25T15:42:37.208Z,71.66
2017-09-25T15:45:06.308Z,72.05
2017-09-25T15:47:36.214Z,71.91
2017-09-25T15:50:05.267Z,72.37
2017-09-25T15:52:34.352Z,72.39
2017-09-25T15:55:03.454Z,72.86
2017-09-25T15:57:33.273Z,73.10
2017-09-25T16:00:02.349Z,72.97
2017-09-25T16:02:32.190Z,73.32
2017-09-25T16:05:01.266Z,73.75
2017-09-25T16:07:31.123Z,74.02
2017-09-25T16:10:00.178Z,73.39
2017-09-25T16:12:30.027Z,73.57
2017-09-25T16:14:59.088Z,74.02
2017-09-25T16:17:28.148Z,74.18
2017-09-25T16:19:57.228Z,74.36
2017-09-25T16:22:26.323Z,74.48
2017-09-25T16:24:55.385Z,74.46
2017-09-25T16:27:24.476Z,74.62
2017-09-25T16:29:53.645Z,74.82
2017-09-25T16:32:23.472Z,75.37
2017-09-25T16:34:52.544Z,75.59
2017-09-25T16:37:22.387Z,75.37
2017-09-25T16:39:51.471Z,75.85
2017-09-25T16:42:21.654Z,75.96
2017-09-25T16:44:50.754Z,76.10
2017-09-25T16:47:19.856Z,76.52
2017-09-25T16:49:48.918Z,76.74
2017-09-25T16:52:17.990Z,77.40
2017-09-25T16:54:47.061Z,77.73
2017-09-25T16:57:16.164Z,77.94
2017-09-25T16:59:46.031Z,77.78
2017-09-25T17:02:15.095Z,78.29
2017-09-25T17:04:44.168Z,78.38
2017-09-25T17:07:14.019Z,78.65
2017-09-25T17:09:44.059Z,78.80
2017-09-25T17:12:13.122Z,78.90
2017-09-25T17:14:42.267Z,79.07
2017-09-25T17:17:11.461Z,79.30
2017-09-25T17:19:42.309Z,79.47
2017-09-25T17:22:12.333Z,79.70
2017-09-25T17:24:42.431Z,79.85
2017-09-25T17:27:11.837Z,80.05
2017-09-25T17:29:42.997Z,80.17
2017-09-25T17:32:12.483Z,80.55
2017-09-25T17:34:41.942Z,80.77
2017-09-25T17:37:11.367Z,80.99
2017-09-25T17:39:40.916Z,81.20
2017-09-25T17:42:11.807Z,81.41
2017-09-25T17:44:40.994Z,81.80
2017-09-25T17:47:10.825Z,82.00
2017-09-25T17:49:40.153Z,81.81
2017-09-25T17:52:09.367Z,81.78
2017-09-25T17:54:39.220Z,81.49
2017-09-25T17:57:08.334Z,81.53
2017-09-25T17:59:37.439Z,81.56
2017-09-25T18:02:06.752Z,81.51
2017-09-25T18:04:35.847Z,81.39
2017-09-25T18:07:04.928Z,81.41
2017-09-25T18:09:33.971Z,81.52
2017-09-25T18:12:03.817Z,81.58
2017-09-25T18:14:32.901Z,81.76
2017-09-25T18:17:02.108Z,81.67
2017-09-25T18:19:31.466Z,82.02
2017-09-25T18:22:00.529Z,82.34
2017-09-25T18:24:29.695Z,82.78
2017-09-25T18:26:58.835Z,82.73
2017-09-25T18:29:27.898Z,83.01
2017-09-25T18:31:56.976Z,83.26
2017-09-25T18:34:26.455Z,83.56
2017-09-25T18:36:56.356Z,83.72
2017-09-25T18:39:25.442Z,83.87
2017-09-25T18:41:54.518Z,83.94
2017-09-25T18:44:23.581Z,84.15
2017-09-25T18:46:53.429Z,84.13
2017-09-25T18:49:22.496Z,83.92
2017-09-25T18:51:51.556Z,83.72
2017-09-25T18:54:20.665Z,83.75
2017-09-25T18:56:51.143Z,83.68
2017-09-25T18:59:20.220Z,83.14
2017-09-25T19:01:49.302Z,82.97
2017-09-25T19:04:18.389Z,82.92
2017-09-25T19:06:47.477Z,82.81
2017-09-25T19:09:17.317Z,82.67
2017-09-25T19:11:46.395Z,82.61
2017-09-25T19:14:15.463Z,82.81
2017-09-25T19:16:44.614Z,82.83
2017-09-25T19:19:13.735Z,82.80
2017-09-25T19:21:42.802Z,82.91
2017-09-25T19:24:11.890Z,82.87
2017-09-25T19:26:40.948Z,82.96
2017-09-25T19:29:10.815Z,83.14
2017-09-25T19:31:39.966Z,83.16
2017-09-25T19:34:09.811Z,83.88
2017-09-25T19:36:38.899Z,83.97
2017-09-25T19:39:07.979Z,84.51
2017-09-25T19:41:37.824Z,84.88
2017-09-25T19:44:06.918Z,85.72
2017-09-25T19:46:36.029Z,86.50
2017-09-25T19:49:06.420Z,86.18
2017-09-25T19:51:35.526Z,85.84
2017-09-25T19:54:05.018Z,85.47
2017-09-25T19:59:38.798Z,84.82
2017-09-25T20:02:07.864Z,85.00
2017-09-25T20:04:36.922Z,84.83
2017-09-25T20:07:06.820Z,84.69
2017-09-25T20:09:35.900Z,84.55
2017-09-25T20:12:04.977Z,84.40
2017-09-25T20:14:35.417Z,84.36
2017-09-25T20:17:05.826Z,84.37
2017-09-25T20:19:34.901Z,84.49
2017-09-25T20:22:04.057Z,84.45
2017-09-25T20:24:33.100Z,84.52
2017-09-25T20:27:02.191Z,84.72
2017-09-25T20:29:31.273Z,84.91
2017-09-25T20:32:01.090Z,85.16
2017-09-25T20:34:30.144Z,85.67
